sensor_id;sensor_type;location;lat;lon;timestamp;P1;durP1;ratioP1;P2;durP2;ratioP2
38725;SDS011;24474;48.906;8.808;2022-07-05T00:00:58;3.65;;;1.30;;
38725;SDS011;24474;48.906;8.808;2022-07-05T00:03:24;3.03;;;1.33;;
38725;SDS011;24474;48.906;8.808;2022-07-05T00:05:51;2.70;;;1.30;;
38725;SDS011;24474;48.906;8.808;2022-07-05T00:08:17;3.45;;;1.50;;
38725;SDS011;24474;48.906;8.808;2022-07-05T00:10:45;3.70;;;1.33;;
38725;SDS011;24474;48.906;8.808;2022-07-05T00:13:12;4.15;;;1.45;;
38725;SDS011;24474;48.906;8.808;2022-07-05T00:15:38;5.40;;;1.40;;
38725;SDS011;24474;48.906;8.808;2022-07-05T00:18:03;2.67;;;1.35;;
38725;SDS011;24474;48.906;8.808;2022-07-05T00:20:30;2.25;;;1.10;;
38725;SDS011;24474;48.906;8.808;2022-07-05T00:22:55;2.33;;;1.20;;
38725;SDS011;24474;48.906;8.808;2022-07-05T00:25:22;2.72;;;1.20;;
38725;SDS011;24474;48.906;8.808;2022-07-05T00:27:49;7.78;;;1.27;;
38725;SDS011;24474;48.906;8.808;2022-07-05T00:30:14;3.25;;;1.20;;
38725;SDS011;24474;48.906;8.808;2022-07-05T00:32:40;2.80;;;1.20;;
38725;SDS011;24474;48.906;8.808;2022-07-05T00:35:07;2.22;;;1.20;;
38725;SDS011;24474;48.906;8.808;2022-07-05T00:37:34;3.38;;;1.27;;
38725;SDS011;24474;48.906;8.808;2022-07-05T00:40:01;3.33;;;1.33;;
38725;SDS011;24474;48.906;8.808;2022-07-05T00:42:29;5.22;;;1.20;;
38725;SDS011;24474;48.906;8.808;2022-07-05T00:44:57;2.42;;;1.10;;
38725;SDS011;24474;48.906;8.808;2022-07-05T00:47:22;3.72;;;1.10;;
38725;SDS011;24474;48.906;8.808;2022-07-05T00:49:48;1.67;;;1.10;;
38725;SDS011;24474;48.906;8.808;2022-07-05T00:52:14;2.67;;;1.20;;
38725;SDS011;24474;48.906;8.808;2022-07-05T00:54:42;3.78;;;1.15;;
38725;SDS011;24474;48.906;8.808;2022-07-05T00:57:09;2.20;;;1.10;;
38725;SDS011;24474;48.906;8.808;2022-07-05T00:59:34;5.00;;;1.27;;
38725;SDS011;24474;48.906;8.808;2022-07-05T01:02:01;1.90;;;1.30;;
38725;SDS011;24474;48.906;8.808;2022-07-05T01:04:27;2.42;;;1.40;;
38725;SDS011;24474;48.906;8.808;2022-07-05T01:06:54;3.83;;;1.55;;
38725;SDS011;24474;48.906;8.808;2022-07-05T01:09:20;4.15;;;1.63;;
38725;SDS011;24474;48.906;8.808;2022-07-05T01:11:49;1.95;;;1.13;;
38725;SDS011;24474;48.906;8.808;2022-07-05T01:14:18;5.63;;;1.38;;
38725;SDS011;24474;48.906;8.808;2022-07-05T01:16:46;2.38;;;1.30;;
38725;SDS011;24474;48.906;8.808;2022-07-05T01:19:13;3.20;;;1.30;;
38725;SDS011;24474;48.906;8.808;2022-07-05T01:21:42;1.67;;;1.10;;
38725;SDS011;24474;48.906;8.808;2022-07-05T01:24:14;1.85;;;1.17;;
38725;SDS011;24474;48.906;8.808;2022-07-05T01:26:43;1.92;;;1.30;;
38725;SDS011;24474;48.906;8.808;2022-07-05T01:29:12;4.43;;;1.35;;
38725;SDS011;24474;48.906;8.808;2022-07-05T01:31:39;2.10;;;1.30;;
38725;SDS011;24474;48.906;8.808;2022-07-05T01:34:06;2.97;;;1.33;;
38725;SDS011;24474;48.906;8.808;2022-07-05T01:36:33;3.47;;;1.25;;
38725;SDS011;24474;48.906;8.808;2022-07-05T01:39:01;3.03;;;1.40;;
38725;SDS011;24474;48.906;8.808;2022-07-05T01:41:33;5.35;;;1.50;;
38725;SDS011;24474;48.906;8.808;2022-07-05T01:44:01;3.45;;;1.45;;
38725;SDS011;24474;48.906;8.808;2022-07-05T01:46:29;3.03;;;1.30;;
38725;SDS011;24474;48.906;8.808;2022-07-05T01:49:00;2.28;;;1.25;;
38725;SDS011;24474;48.906;8.808;2022-07-05T01:51:38;5.57;;;1.83;;
38725;SDS011;24474;48.906;8.808;2022-07-05T01:54:15;3.40;;;1.58;;
38725;SDS011;24474;48.906;8.808;2022-07-05T01:56:41;3.17;;;1.60;;
38725;SDS011;24474;48.906;8.808;2022-07-05T01:59:11;2.95;;;1.42;;
38725;SDS011;24474;48.906;8.808;2022-07-05T02:01:37;3.95;;;1.60;;
38725;SDS011;24474;48.906;8.808;2022-07-05T02:04:07;3.28;;;1.60;;
38725;SDS011;24474;48.906;8.808;2022-07-05T02:06:35;4.20;;;1.35;;
38725;SDS011;24474;48.906;8.808;2022-07-05T02:09:02;3.20;;;1.38;;
38725;SDS011;24474;48.906;8.808;2022-07-05T02:11:30;3.60;;;1.70;;
38725;SDS011;24474;48.906;8.808;2022-07-05T02:13:57;5.65;;;1.50;;
38725;SDS011;24474;48.906;8.808;2022-07-05T02:16:25;3.58;;;1.40;;
38725;SDS011;24474;48.906;8.808;2022-07-05T02:18:51;2.20;;;1.33;;
38725;SDS011;24474;48.906;8.808;2022-07-05T02:21:18;3.00;;;1.40;;
38725;SDS011;24474;48.906;8.808;2022-07-05T02:23:44;6.65;;;1.50;;
38725;SDS011;24474;48.906;8.808;2022-07-05T02:26:10;3.20;;;1.40;;
38725;SDS011;24474;48.906;8.808;2022-07-05T02:28:37;3.90;;;1.40;;
38725;SDS011;24474;48.906;8.808;2022-07-05T02:31:04;3.90;;;1.55;;
38725;SDS011;24474;48.906;8.808;2022-07-05T02:33:30;3.55;;;1.52;;
38725;SDS011;24474;48.906;8.808;2022-07-05T02:35:56;2.00;;;1.33;;
38725;SDS011;24474;48.906;8.808;2022-07-05T02:38:23;2.13;;;1.40;;
38725;SDS011;24474;48.906;8.808;2022-07-05T02:40:50;3.40;;;1.55;;
38725;SDS011;24474;48.906;8.808;2022-07-05T02:43:16;2.60;;;1.50;;
38725;SDS011;24474;48.906;8.808;2022-07-05T02:45:41;4.53;;;1.70;;
38725;SDS011;24474;48.906;8.808;2022-07-05T02:48:07;2.22;;;1.60;;
38725;SDS011;24474;48.906;8.808;2022-07-05T02:50:34;5.00;;;1.77;;
38725;SDS011;24474;48.906;8.808;2022-07-05T02:52:59;3.13;;;1.50;;
38725;SDS011;24474;48.906;8.808;2022-07-05T02:55:25;3.83;;;1.73;;
38725;SDS011;24474;48.906;8.808;2022-07-05T02:57:52;2.35;;;1.52;;
38725;SDS011;24474;48.906;8.808;2022-07-05T03:00:17;4.40;;;1.83;;
38725;SDS011;24474;48.906;8.808;2022-07-05T03:02:43;3.65;;;1.65;;
38725;SDS011;24474;48.906;8.808;2022-07-05T03:05:10;3.72;;;1.70;;
38725;SDS011;24474;48.906;8.808;2022-07-05T03:07:35;3.25;;;1.70;;
38725;SDS011;24474;48.906;8.808;2022-07-05T03:10:01;4.10;;;1.63;;
38725;SDS011;24474;48.906;8.808;2022-07-05T03:12:27;3.60;;;1.80;;
38725;SDS011;24474;48.906;8.808;2022-07-05T03:14:53;5.75;;;1.77;;
38725;SDS011;24474;48.906;8.808;2022-07-05T03:17:19;4.78;;;1.90;;
38725;SDS011;24474;48.906;8.808;2022-07-05T03:19:46;3.95;;;1.77;;
38725;SDS011;24474;48.906;8.808;2022-07-05T03:22:12;3.58;;;1.65;;
38725;SDS011;24474;48.906;8.808;2022-07-05T03:24:39;4.38;;;1.70;;
38725;SDS011;24474;48.906;8.808;2022-07-05T03:27:05;2.65;;;1.70;;
38725;SDS011;24474;48.906;8.808;2022-07-05T03:29:32;4.53;;;1.92;;
38725;SDS011;24474;48.906;8.808;2022-07-05T03:31:57;4.88;;;1.67;;
38725;SDS011;24474;48.906;8.808;2022-07-05T03:34:23;3.00;;;1.77;;
38725;SDS011;24474;48.906;8.808;2022-07-05T03:36:49;3.88;;;1.40;;
38725;SDS011;24474;48.906;8.808;2022-07-05T03:39:16;2.45;;;1.50;;
38725;SDS011;24474;48.906;8.808;2022-07-05T03:41:41;4.25;;;1.50;;
38725;SDS011;24474;48.906;8.808;2022-07-05T03:44:07;3.75;;;1.48;;
38725;SDS011;24474;48.906;8.808;2022-07-05T03:46:34;2.30;;;1.40;;
38725;SDS011;24474;48.906;8.808;2022-07-05T03:49:00;2.10;;;1.40;;
38725;SDS011;24474;48.906;8.808;2022-07-05T03:51:27;3.40;;;1.67;;
38725;SDS011;24474;48.906;8.808;2022-07-05T03:53:52;2.65;;;1.77;;
38725;SDS011;24474;48.906;8.808;2022-07-05T03:56:19;3.55;;;1.58;;
38725;SDS011;24474;48.906;8.808;2022-07-05T03:58:48;3.50;;;1.70;;
38725;SDS011;24474;48.906;8.808;2022-07-05T04:01:15;2.05;;;1.60;;
38725;SDS011;24474;48.906;8.808;2022-07-05T04:03:42;4.60;;;1.80;;
38725;SDS011;24474;48.906;8.808;2022-07-05T04:06:12;5.18;;;1.63;;
38725;SDS011;24474;48.906;8.808;2022-07-05T04:08:39;4.33;;;1.60;;
38725;SDS011;24474;48.906;8.808;2022-07-05T04:11:05;2.17;;;1.25;;
38725;SDS011;24474;48.906;8.808;2022-07-05T04:13:31;3.40;;;1.95;;
38725;SDS011;24474;48.906;8.808;2022-07-05T04:15:56;4.45;;;2.15;;
38725;SDS011;24474;48.906;8.808;2022-07-05T04:18:23;2.47;;;1.98;;
38725;SDS011;24474;48.906;8.808;2022-07-05T04:20:50;2.78;;;1.92;;
38725;SDS011;24474;48.906;8.808;2022-07-05T04:23:16;3.72;;;2.10;;
38725;SDS011;24474;48.906;8.808;2022-07-05T04:25:41;3.50;;;2.20;;
38725;SDS011;24474;48.906;8.808;2022-07-05T04:28:10;3.58;;;1.85;;
38725;SDS011;24474;48.906;8.808;2022-07-05T04:30:35;4.80;;;1.92;;
38725;SDS011;24474;48.906;8.808;2022-07-05T04:33:03;3.33;;;1.88;;
38725;SDS011;24474;48.906;8.808;2022-07-05T04:35:29;4.35;;;2.05;;
38725;SDS011;24474;48.906;8.808;2022-07-05T04:37:56;4.72;;;2.25;;
38725;SDS011;24474;48.906;8.808;2022-07-05T04:40:25;5.10;;;2.10;;
38725;SDS011;24474;48.906;8.808;2022-07-05T04:42:52;5.32;;;2.00;;
38725;SDS011;24474;48.906;8.808;2022-07-05T04:45:17;5.80;;;2.35;;
38725;SDS011;24474;48.906;8.808;2022-07-05T04:47:45;4.78;;;2.33;;
38725;SDS011;24474;48.906;8.808;2022-07-05T04:50:15;4.00;;;2.17;;
38725;SDS011;24474;48.906;8.808;2022-07-05T04:52:41;5.30;;;2.25;;
38725;SDS011;24474;48.906;8.808;2022-07-05T04:55:07;4.70;;;2.00;;
38725;SDS011;24474;48.906;8.808;2022-07-05T04:57:41;5.78;;;2.15;;
38725;SDS011;24474;48.906;8.808;2022-07-05T05:00:09;4.63;;;2.30;;
38725;SDS011;24474;48.906;8.808;2022-07-05T05:02:38;6.35;;;2.15;;
38725;SDS011;24474;48.906;8.808;2022-07-05T05:05:05;6.07;;;2.10;;
38725;SDS011;24474;48.906;8.808;2022-07-05T05:07:31;4.32;;;2.00;;
38725;SDS011;24474;48.906;8.808;2022-07-05T05:09:59;7.25;;;2.22;;
38725;SDS011;24474;48.906;8.808;2022-07-05T05:12:26;5.20;;;2.42;;
38725;SDS011;24474;48.906;8.808;2022-07-05T05:14:51;5.47;;;2.38;;
38725;SDS011;24474;48.906;8.808;2022-07-05T05:17:17;5.00;;;2.30;;
38725;SDS011;24474;48.906;8.808;2022-07-05T05:19:42;5.97;;;2.33;;
38725;SDS011;24474;48.906;8.808;2022-07-05T05:22:09;5.65;;;2.50;;
38725;SDS011;24474;48.906;8.808;2022-07-05T05:24:35;7.15;;;2.47;;
38725;SDS011;24474;48.906;8.808;2022-07-05T05:27:01;5.80;;;2.25;;
38725;SDS011;24474;48.906;8.808;2022-07-05T05:29:27;8.80;;;2.60;;
38725;SDS011;24474;48.906;8.808;2022-07-05T05:31:54;7.90;;;2.60;;
38725;SDS011;24474;48.906;8.808;2022-07-05T05:34:20;5.93;;;2.88;;
38725;SDS011;24474;48.906;8.808;2022-07-05T05:36:46;2.95;;;2.08;;
38725;SDS011;24474;48.906;8.808;2022-07-05T05:39:12;4.72;;;2.22;;
38725;SDS011;24474;48.906;8.808;2022-07-05T05:41:39;4.22;;;1.83;;
38725;SDS011;24474;48.906;8.808;2022-07-05T05:44:06;4.70;;;1.80;;
38725;SDS011;24474;48.906;8.808;2022-07-05T05:46:32;5.88;;;1.80;;
38725;SDS011;24474;48.906;8.808;2022-07-05T05:48:57;7.90;;;1.65;;
38725;SDS011;24474;48.906;8.808;2022-07-05T05:51:23;4.60;;;1.23;;
38725;SDS011;24474;48.906;8.808;2022-07-05T05:53:49;4.18;;;1.38;;
38725;SDS011;24474;48.906;8.808;2022-07-05T05:56:16;4.20;;;1.50;;
38725;SDS011;24474;48.906;8.808;2022-07-05T05:58:42;4.22;;;1.20;;
38725;SDS011;24474;48.906;8.808;2022-07-05T06:01:12;3.83;;;1.30;;
38725;SDS011;24474;48.906;8.808;2022-07-05T06:03:38;3.03;;;1.20;;
38725;SDS011;24474;48.906;8.808;2022-07-05T06:06:03;4.38;;;1.23;;
38725;SDS011;24474;48.906;8.808;2022-07-05T06:08:29;5.78;;;1.27;;
38725;SDS011;24474;48.906;8.808;2022-07-05T06:10:55;8.10;;;1.30;;
38725;SDS011;24474;48.906;8.808;2022-07-05T06:13:20;5.10;;;0.95;;
38725;SDS011;24474;48.906;8.808;2022-07-05T06:15:46;2.00;;;0.98;;
38725;SDS011;24474;48.906;8.808;2022-07-05T06:18:12;3.67;;;1.10;;
38725;SDS011;24474;48.906;8.808;2022-07-05T06:20:38;3.97;;;1.40;;
38725;SDS011;24474;48.906;8.808;2022-07-05T06:23:04;6.28;;;1.58;;
38725;SDS011;24474;48.906;8.808;2022-07-05T06:25:31;7.32;;;1.52;;
38725;SDS011;24474;48.906;8.808;2022-07-05T06:28:05;5.30;;;1.40;;
38725;SDS011;24474;48.906;8.808;2022-07-05T06:30:35;7.13;;;1.42;;
38725;SDS011;24474;48.906;8.808;2022-07-05T06:33:03;9.82;;;1.95;;
38725;SDS011;24474;48.906;8.808;2022-07-05T06:35:29;8.68;;;1.70;;
38725;SDS011;24474;48.906;8.808;2022-07-05T06:38:02;9.48;;;1.70;;
38725;SDS011;24474;48.906;8.808;2022-07-05T06:40:31;8.10;;;1.77;;
38725;SDS011;24474;48.906;8.808;2022-07-05T06:43:02;5.75;;;1.95;;
38725;SDS011;24474;48.906;8.808;2022-07-05T06:45:30;7.47;;;1.85;;
38725;SDS011;24474;48.906;8.808;2022-07-05T06:47:59;4.47;;;1.63;;
38725;SDS011;24474;48.906;8.808;2022-07-05T06:50:27;5.22;;;1.70;;
38725;SDS011;24474;48.906;8.808;2022-07-05T06:52:56;7.60;;;1.70;;
38725;SDS011;24474;48.906;8.808;2022-07-05T06:55:23;7.65;;;1.38;;
38725;SDS011;24474;48.906;8.808;2022-07-05T06:57:49;6.97;;;1.83;;
38725;SDS011;24474;48.906;8.808;2022-07-05T07:00:26;6.57;;;1.40;;
38725;SDS011;24474;48.906;8.808;2022-07-05T07:02:54;6.90;;;1.58;;
38725;SDS011;24474;48.906;8.808;2022-07-05T07:05:20;6.07;;;1.30;;
38725;SDS011;24474;48.906;8.808;2022-07-05T07:07:46;2.63;;;1.15;;
38725;SDS011;24474;48.906;8.808;2022-07-05T07:10:31;3.95;;;1.23;;
38725;SDS011;24474;48.906;8.808;2022-07-05T07:12:57;3.15;;;1.10;;
38725;SDS011;24474;48.906;8.808;2022-07-05T07:15:23;3.63;;;1.52;;
38725;SDS011;24474;48.906;8.808;2022-07-05T07:17:50;3.30;;;1.27;;
38725;SDS011;24474;48.906;8.808;2022-07-05T07:20:16;4.63;;;1.10;;
38725;SDS011;24474;48.906;8.808;2022-07-05T07:22:42;5.82;;;1.17;;
38725;SDS011;24474;48.906;8.808;2022-07-05T07:25:09;5.50;;;1.10;;
38725;SDS011;24474;48.906;8.808;2022-07-05T07:27:46;5.60;;;1.40;;
38725;SDS011;24474;48.906;8.808;2022-07-05T07:30:14;4.22;;;1.30;;
38725;SDS011;24474;48.906;8.808;2022-07-05T07:32:42;5.13;;;1.20;;
38725;SDS011;24474;48.906;8.808;2022-07-05T07:35:09;4.82;;;1.25;;
38725;SDS011;24474;48.906;8.808;2022-07-05T07:37:35;5.40;;;1.45;;
38725;SDS011;24474;48.906;8.808;2022-07-05T07:40:02;5.55;;;1.23;;
38725;SDS011;24474;48.906;8.808;2022-07-05T07:42:29;5.72;;;1.40;;
38725;SDS011;24474;48.906;8.808;2022-07-05T07:44:56;3.28;;;1.15;;
38725;SDS011;24474;48.906;8.808;2022-07-05T07:47:22;4.22;;;1.40;;
38725;SDS011;24474;48.906;8.808;2022-07-05T07:49:50;7.68;;;1.30;;
38725;SDS011;24474;48.906;8.808;2022-07-05T07:52:16;5.38;;;1.20;;
38725;SDS011;24474;48.906;8.808;2022-07-05T07:54:41;3.90;;;1.20;;
38725;SDS011;24474;48.906;8.808;2022-07-05T07:57:07;6.65;;;1.40;;
38725;SDS011;24474;48.906;8.808;2022-07-05T07:59:33;3.22;;;1.20;;
38725;SDS011;24474;48.906;8.808;2022-07-05T08:02:00;8.02;;;1.13;;
38725;SDS011;24474;48.906;8.808;2022-07-05T08:04:26;3.58;;;1.10;;
38725;SDS011;24474;48.906;8.808;2022-07-05T08:06:52;2.30;;;1.08;;
38725;SDS011;24474;48.906;8.808;2022-07-05T08:09:18;3.05;;;0.90;;
38725;SDS011;24474;48.906;8.808;2022-07-05T08:11:45;3.38;;;1.10;;
38725;SDS011;24474;48.906;8.808;2022-07-05T08:14:11;1.40;;;0.73;;
38725;SDS011;24474;48.906;8.808;2022-07-05T08:16:38;3.80;;;1.05;;
38725;SDS011;24474;48.906;8.808;2022-07-05T08:19:05;3.60;;;1.17;;
38725;SDS011;24474;48.906;8.808;2022-07-05T08:21:49;6.78;;;1.17;;
38725;SDS011;24474;48.906;8.808;2022-07-05T08:24:14;6.90;;;1.10;;
38725;SDS011;24474;48.906;8.808;2022-07-05T08:26:40;4.63;;;0.90;;
38725;SDS011;24474;48.906;8.808;2022-07-05T08:29:11;5.53;;;1.10;;
38725;SDS011;24474;48.906;8.808;2022-07-05T08:31:39;4.10;;;1.42;;
38725;SDS011;24474;48.906;8.808;2022-07-05T08:34:06;4.90;;;1.23;;
38725;SDS011;24474;48.906;8.808;2022-07-05T08:36:32;5.03;;;1.10;;
38725;SDS011;24474;48.906;8.808;2022-07-05T08:38:58;2.50;;;1.25;;
38725;SDS011;24474;48.906;8.808;2022-07-05T08:41:23;4.70;;;1.00;;
38725;SDS011;24474;48.906;8.808;2022-07-05T08:43:50;4.03;;;1.17;;
38725;SDS011;24474;48.906;8.808;2022-07-05T08:46:22;3.05;;;1.10;;
38725;SDS011;24474;48.906;8.808;2022-07-05T08:48:50;2.65;;;1.10;;
38725;SDS011;24474;48.906;8.808;2022-07-05T08:51:20;5.78;;;1.40;;
38725;SDS011;24474;48.906;8.808;2022-07-05T08:53:46;3.67;;;1.30;;
38725;SDS011;24474;48.906;8.808;2022-07-05T08:56:13;5.57;;;1.38;;
38725;SDS011;24474;48.906;8.808;2022-07-05T08:58:40;2.58;;;1.15;;
38725;SDS011;24474;48.906;8.808;2022-07-05T09:01:07;3.00;;;1.00;;
38725;SDS011;24474;48.906;8.808;2022-07-05T09:03:46;5.30;;;1.17;;
38725;SDS011;24474;48.906;8.808;2022-07-05T09:06:15;3.25;;;1.15;;
38725;SDS011;24474;48.906;8.808;2022-07-05T09:08:47;4.30;;;1.08;;
38725;SDS011;24474;48.906;8.808;2022-07-05T09:11:16;2.70;;;1.10;;
38725;SDS011;24474;48.906;8.808;2022-07-05T09:13:50;3.85;;;1.13;;
38725;SDS011;24474;48.906;8.808;2022-07-05T09:16:16;1.77;;;0.60;;
38725;SDS011;24474;48.906;8.808;2022-07-05T09:18:46;3.53;;;0.80;;
38725;SDS011;24474;48.906;8.808;2022-07-05T09:23:59;3.83;;;1.17;;
38725;SDS011;24474;48.906;8.808;2022-07-05T09:26:37;2.80;;;1.00;;
38725;SDS011;24474;48.906;8.808;2022-07-05T09:29:07;3.30;;;1.00;;
38725;SDS011;24474;48.906;8.808;2022-07-05T09:31:47;2.58;;;0.73;;
38725;SDS011;24474;48.906;8.808;2022-07-05T09:34:20;5.72;;;0.95;;
38725;SDS011;24474;48.906;8.808;2022-07-05T09:42:12;4.28;;;1.00;;
38725;SDS011;24474;48.906;8.808;2022-07-05T09:44:41;2.85;;;1.10;;
38725;SDS011;24474;48.906;8.808;2022-07-05T09:47:12;4.13;;;1.10;;
38725;SDS011;24474;48.906;8.808;2022-07-05T09:49:44;5.53;;;1.10;;
38725;SDS011;24474;48.906;8.808;2022-07-05T09:52:25;1.77;;;0.90;;
38725;SDS011;24474;48.906;8.808;2022-07-05T09:55:10;4.60;;;0.98;;
38725;SDS011;24474;48.906;8.808;2022-07-05T09:57:41;1.98;;;0.90;;
38725;SDS011;24474;48.906;8.808;2022-07-05T10:00:18;2.97;;;0.80;;
38725;SDS011;24474;48.906;8.808;2022-07-05T10:02:46;4.72;;;1.10;;
38725;SDS011;24474;48.906;8.808;2022-07-05T10:05:28;2.90;;;1.02;;
38725;SDS011;24474;48.906;8.808;2022-07-05T10:07:59;5.18;;;1.15;;
38725;SDS011;24474;48.906;8.808;2022-07-05T10:10:30;4.55;;;0.95;;
38725;SDS011;24474;48.906;8.808;2022-07-05T10:13:00;1.30;;;0.80;;
38725;SDS011;24474;48.906;8.808;2022-07-05T10:18:03;2.65;;;1.08;;
38725;SDS011;24474;48.906;8.808;2022-07-05T10:23:03;4.38;;;1.10;;
38725;SDS011;24474;48.906;8.808;2022-07-05T10:25:30;6.03;;;0.80;;
38725;SDS011;24474;48.906;8.808;2022-07-05T10:27:56;3.15;;;0.90;;
38725;SDS011;24474;48.906;8.808;2022-07-05T10:30:23;4.90;;;1.00;;
38725;SDS011;24474;48.906;8.808;2022-07-05T10:32:50;7.13;;;1.00;;
38725;SDS011;24474;48.906;8.808;2022-07-05T10:35:17;2.40;;;0.90;;
38725;SDS011;24474;48.906;8.808;2022-07-05T10:37:46;3.75;;;0.90;;
38725;SDS011;24474;48.906;8.808;2022-07-05T10:40:12;1.42;;;0.60;;
38725;SDS011;24474;48.906;8.808;2022-07-05T10:50:48;4.97;;;0.90;;
38725;SDS011;24474;48.906;8.808;2022-07-05T10:53:28;2.13;;;0.77;;
38725;SDS011;24474;48.906;8.808;2022-07-05T10:58:52;2.38;;;0.90;;
38725;SDS011;24474;48.906;8.808;2022-07-05T11:01:30;1.95;;;0.80;;
38725;SDS011;24474;48.906;8.808;2022-07-05T11:04:19;3.42;;;0.85;;
38725;SDS011;24474;48.906;8.808;2022-07-05T11:07:05;4.03;;;0.80;;
38725;SDS011;24474;48.906;8.808;2022-07-05T11:10:04;2.88;;;0.95;;
38725;SDS011;24474;48.906;8.808;2022-07-05T11:12:52;4.35;;;1.00;;
38725;SDS011;24474;48.906;8.808;2022-07-05T11:15:18;2.50;;;0.80;;
38725;SDS011;24474;48.906;8.808;2022-07-05T11:17:46;2.03;;;0.70;;
38725;SDS011;24474;48.906;8.808;2022-07-05T11:20:15;2.35;;;0.90;;
38725;SDS011;24474;48.906;8.808;2022-07-05T11:23:02;1.77;;;0.73;;
38725;SDS011;24474;48.906;8.808;2022-07-05T11:25:51;2.03;;;0.73;;
38725;SDS011;24474;48.906;8.808;2022-07-05T11:28:21;1.90;;;0.70;;
38725;SDS011;24474;48.906;8.808;2022-07-05T11:31:07;1.38;;;0.55;;
38725;SDS011;24474;48.906;8.808;2022-07-05T11:33:37;4.15;;;0.82;;
38725;SDS011;24474;48.906;8.808;2022-07-05T11:36:24;2.72;;;0.80;;
38725;SDS011;24474;48.906;8.808;2022-07-05T11:41:35;2.73;;;0.67;;
38725;SDS011;24474;48.906;8.808;2022-07-05T11:44:10;3.58;;;0.68;;
38725;SDS011;24474;48.906;8.808;2022-07-05T11:46:37;2.75;;;0.63;;
38725;SDS011;24474;48.906;8.808;2022-07-05T11:49:18;2.60;;;0.70;;
38725;SDS011;24474;48.906;8.808;2022-07-05T11:51:59;2.58;;;0.80;;
38725;SDS011;24474;48.906;8.808;2022-07-05T11:54:29;2.53;;;0.93;;
38725;SDS011;24474;48.906;8.808;2022-07-05T11:57:08;2.15;;;0.70;;
38725;SDS011;24474;48.906;8.808;2022-07-05T11:59:36;2.38;;;0.82;;
38725;SDS011;24474;48.906;8.808;2022-07-05T12:02:04;5.22;;;0.82;;
38725;SDS011;24474;48.906;8.808;2022-07-05T12:04:34;3.85;;;0.73;;
38725;SDS011;24474;48.906;8.808;2022-07-05T12:07:05;3.13;;;0.80;;
38725;SDS011;24474;48.906;8.808;2022-07-05T12:09:32;1.83;;;0.57;;
38725;SDS011;24474;48.906;8.808;2022-07-05T12:12:24;2.17;;;0.80;;
38725;SDS011;24474;48.906;8.808;2022-07-05T12:15:14;3.40;;;0.88;;
38725;SDS011;24474;48.906;8.808;2022-07-05T12:17:55;1.70;;;0.75;;
38725;SDS011;24474;48.906;8.808;2022-07-05T12:20:26;4.28;;;0.80;;
38725;SDS011;24474;48.906;8.808;2022-07-05T12:23:07;1.75;;;0.68;;
38725;SDS011;24474;48.906;8.808;2022-07-05T12:25:45;4.75;;;0.90;;
38725;SDS011;24474;48.906;8.808;2022-07-05T12:28:10;1.92;;;0.68;;
38725;SDS011;24474;48.906;8.808;2022-07-05T12:30:36;4.00;;;0.88;;
38725;SDS011;24474;48.906;8.808;2022-07-05T12:33:06;3.25;;;0.60;;
38725;SDS011;24474;48.906;8.808;2022-07-05T12:35:44;3.13;;;0.73;;
38725;SDS011;24474;48.906;8.808;2022-07-05T12:38:16;4.43;;;1.10;;
38725;SDS011;24474;48.906;8.808;2022-07-05T12:40:45;2.00;;;0.70;;
38725;SDS011;24474;48.906;8.808;2022-07-05T12:43:16;2.17;;;0.80;;
38725;SDS011;24474;48.906;8.808;2022-07-05T12:45:44;2.50;;;0.80;;
38725;SDS011;24474;48.906;8.808;2022-07-05T12:48:37;2.88;;;0.85;;
38725;SDS011;24474;48.906;8.808;2022-07-05T12:51:05;3.42;;;0.85;;
38725;SDS011;24474;48.906;8.808;2022-07-05T12:53:32;3.28;;;0.70;;
38725;SDS011;24474;48.906;8.808;2022-07-05T12:56:19;3.30;;;0.82;;
38725;SDS011;24474;48.906;8.808;2022-07-05T12:59:10;3.15;;;1.02;;
38725;SDS011;24474;48.906;8.808;2022-07-05T13:01:39;8.18;;;2.53;;
38725;SDS011;24474;48.906;8.808;2022-07-05T13:04:17;3.22;;;0.73;;
38725;SDS011;24474;48.906;8.808;2022-07-05T13:07:00;2.42;;;0.80;;
38725;SDS011;24474;48.906;8.808;2022-07-05T13:12:14;2.45;;;0.90;;
38725;SDS011;24474;48.906;8.808;2022-07-05T13:14:53;3.38;;;1.13;;
38725;SDS011;24474;48.906;8.808;2022-07-05T13:17:22;2.88;;;1.10;;
38725;SDS011;24474;48.906;8.808;2022-07-05T13:19:51;2.28;;;0.80;;
38725;SDS011;24474;48.906;8.808;2022-07-05T13:22:26;3.25;;;0.60;;
38725;SDS011;24474;48.906;8.808;2022-07-05T13:24:54;1.55;;;0.60;;
38725;SDS011;24474;48.906;8.808;2022-07-05T13:27:23;2.45;;;0.60;;
38725;SDS011;24474;48.906;8.808;2022-07-05T13:29:48;6.95;;;0.90;;
38725;SDS011;24474;48.906;8.808;2022-07-05T13:32:14;3.00;;;0.77;;
38725;SDS011;24474;48.906;8.808;2022-07-05T13:34:43;3.33;;;0.60;;
38725;SDS011;24474;48.906;8.808;2022-07-05T13:37:10;1.30;;;0.50;;
38725;SDS011;24474;48.906;8.808;2022-07-05T13:39:37;1.52;;;0.60;;
38725;SDS011;24474;48.906;8.808;2022-07-05T13:42:06;2.72;;;0.88;;
38725;SDS011;24474;48.906;8.808;2022-07-05T13:44:37;2.08;;;0.70;;
38725;SDS011;24474;48.906;8.808;2022-07-05T13:47:03;3.20;;;0.80;;
38725;SDS011;24474;48.906;8.808;2022-07-05T13:49:30;0.85;;;0.50;;
38725;SDS011;24474;48.906;8.808;2022-07-05T13:51:56;2.03;;;0.65;;
38725;SDS011;24474;48.906;8.808;2022-07-05T13:54:26;1.88;;;0.68;;
38725;SDS011;24474;48.906;8.808;2022-07-05T13:56:53;0.63;;;0.40;;
38725;SDS011;24474;48.906;8.808;2022-07-05T13:59:21;4.00;;;0.68;;
38725;SDS011;24474;48.906;8.808;2022-07-05T14:01:46;1.60;;;0.70;;
38725;SDS011;24474;48.906;8.808;2022-07-05T14:04:12;3.55;;;0.70;;
38725;SDS011;24474;48.906;8.808;2022-07-05T14:06:42;1.83;;;0.70;;
38725;SDS011;24474;48.906;8.808;2022-07-05T14:09:08;3.22;;;0.70;;
38725;SDS011;24474;48.906;8.808;2022-07-05T14:11:34;1.42;;;0.75;;
38725;SDS011;24474;48.906;8.808;2022-07-05T14:14:01;0.98;;;0.50;;
38725;SDS011;24474;48.906;8.808;2022-07-05T14:16:28;2.67;;;0.70;;
38725;SDS011;24474;48.906;8.808;2022-07-05T14:18:54;2.95;;;0.73;;
38725;SDS011;24474;48.906;8.808;2022-07-05T14:21:21;4.03;;;0.80;;
38725;SDS011;24474;48.906;8.808;2022-07-05T14:23:48;2.38;;;0.70;;
38725;SDS011;24474;48.906;8.808;2022-07-05T14:26:17;3.40;;;0.77;;
38725;SDS011;24474;48.906;8.808;2022-07-05T14:28:44;4.70;;;0.75;;
38725;SDS011;24474;48.906;8.808;2022-07-05T14:31:12;2.47;;;0.75;;
38725;SDS011;24474;48.906;8.808;2022-07-05T14:33:38;1.83;;;0.65;;
38725;SDS011;24474;48.906;8.808;2022-07-05T14:36:05;2.90;;;0.77;;
38725;SDS011;24474;48.906;8.808;2022-07-05T14:38:33;3.70;;;0.68;;
38725;SDS011;24474;48.906;8.808;2022-07-05T14:40:59;2.13;;;0.40;;
38725;SDS011;24474;48.906;8.808;2022-07-05T14:43:26;1.65;;;0.60;;
38725;SDS011;24474;48.906;8.808;2022-07-05T14:45:51;0.93;;;0.70;;
38725;SDS011;24474;48.906;8.808;2022-07-05T14:48:17;2.53;;;0.70;;
38725;SDS011;24474;48.906;8.808;2022-07-05T14:50:43;2.88;;;0.70;;
38725;SDS011;24474;48.906;8.808;2022-07-05T14:53:12;3.25;;;0.77;;
38725;SDS011;24474;48.906;8.808;2022-07-05T14:55:39;3.35;;;0.70;;
38725;SDS011;24474;48.906;8.808;2022-07-05T14:58:04;2.00;;;0.70;;
38725;SDS011;24474;48.906;8.808;2022-07-05T15:00:33;2.50;;;0.90;;
38725;SDS011;24474;48.906;8.808;2022-07-05T15:02:59;2.53;;;0.70;;
38725;SDS011;24474;48.906;8.808;2022-07-05T15:05:26;2.03;;;0.80;;
38725;SDS011;24474;48.906;8.808;2022-07-05T15:07:53;3.28;;;0.80;;
38725;SDS011;24474;48.906;8.808;2022-07-05T15:10:19;1.92;;;0.50;;
38725;SDS011;24474;48.906;8.808;2022-07-05T15:12:46;1.23;;;0.47;;
38725;SDS011;24474;48.906;8.808;2022-07-05T15:15:12;2.22;;;0.77;;
38725;SDS011;24474;48.906;8.808;2022-07-05T15:17:39;1.83;;;0.70;;
38725;SDS011;24474;48.906;8.808;2022-07-05T15:20:05;1.85;;;0.60;;
38725;SDS011;24474;48.906;8.808;2022-07-05T15:22:33;2.38;;;0.60;;
38725;SDS011;24474;48.906;8.808;2022-07-05T15:24:59;1.58;;;0.50;;
38725;SDS011;24474;48.906;8.808;2022-07-05T15:27:24;4.70;;;0.80;;